createdAt,value
2019-06-08T16:55:24.286Z,25.90
2019-06-08T16:57:56.970Z,25.85
2019-06-08T17:00:35.296Z,25.87
2019-06-08T17:03:05.193Z,25.83
2019-06-08T17:05:38.524Z,25.81
2019-06-08T17:08:12.308Z,25.80
2019-06-08T17:10:44.795Z,25.72
2019-06-08T17:13:17.466Z,25.63
2019-06-08T17:15:49.734Z,25.43
2019-06-08T17:18:21.931Z,25.43
2019-06-08T17:20:57.177Z,25.16
2019-06-08T17:23:30.630Z,25.16
2019-06-08T17:26:02.955Z,25.16
2019-06-08T17:28:35.373Z,25.07
2019-06-08T17:31:07.512Z,24.92
2019-06-08T17:33:39.642Z,24.86
2019-06-08T17:36:12.053Z,24.80
2019-06-08T17:38:44.228Z,24.67
2019-06-08T17:41:16.404Z,24.68
2019-06-08T17:43:48.538Z,24.67
2019-06-08T17:46:21.581Z,24.58
2019-06-08T17:48:53.862Z,24.58
2019-06-08T17:51:26.009Z,24.62
2019-06-08T17:53:58.227Z,24.58
2019-06-08T17:56:30.508Z,24.55
2019-06-08T17:59:02.717Z,24.47
2019-06-08T18:01:35.968Z,24.47
2019-06-08T18:04:11.300Z,24.49
2019-06-08T18:06:44.618Z,24.41
2019-06-08T18:09:17.528Z,24.39
2019-06-08T18:11:50.148Z,24.36
2019-06-08T18:14:22.369Z,24.27
2019-06-08T18:16:54.669Z,24.25
2019-06-08T18:19:29.540Z,24.13
2019-06-08T18:22:05.476Z,24.13
2019-06-08T18:24:39.212Z,24.08
2019-06-08T18:27:10.367Z,24.06
2019-06-08T18:29:44.093Z,24.08
2019-06-08T18:32:18.103Z,24.03
2019-06-08T18:34:50.634Z,24.00
2019-06-08T18:37:22.854Z,23.89
2019-06-08T18:39:57.688Z,23.81
2019-06-08T18:42:30.401Z,23.78
